createdAt,value
2019-02-04T00:01:55.800Z,0.70
2019-02-04T00:04:27.436Z,0.80
2019-02-04T00:06:57.299Z,0.50
2019-02-04T00:09:27.248Z,0.50
2019-02-04T00:11:57.129Z,0.40
2019-02-04T00:14:26.997Z,0.50
2019-02-04T00:16:57.055Z,0.30
2019-02-04T00:19:27.023Z,0.20
2019-02-04T00:21:56.920Z,0.20
2019-02-04T00:24:27.367Z,0.40
2019-02-04T00:26:57.764Z,0.60
2019-02-04T00:29:27.609Z,0.50
2019-02-04T00:31:57.492Z,0.60
2019-02-04T00:34:27.813Z,0.50
2019-02-04T00:36:57.772Z,0.40
2019-02-04T00:39:27.549Z,0.10
2019-02-04T00:41:57.447Z,-0.20
2019-02-04T00:44:27.393Z,-0.40
2019-02-04T00:46:57.367Z,-0.20
2019-02-04T00:49:27.251Z,-0.10
2019-02-04T00:51:57.427Z,0.10
2019-02-04T00:54:27.299Z,0.10
2019-02-04T00:56:57.262Z,-0.10
2019-02-04T00:59:27.959Z,-0.30
2019-02-04T01:01:57.921Z,-0.40
2019-02-04T01:04:27.805Z,0.00
2019-02-04T01:06:57.866Z,0.00
2019-02-04T01:09:27.793Z,0.00
2019-02-04T01:11:57.686Z,0.10
2019-02-04T01:14:27.809Z,-0.30
2019-02-04T01:17:03.520Z,-0.40
2019-02-04T01:19:29.319Z,-0.30
2019-02-04T01:21:59.216Z,-0.30
2019-02-04T01:24:29.067Z,-0.40
2019-02-04T01:26:59.119Z,-0.60
2019-02-04T01:29:29.005Z,-0.50
2019-02-04T01:31:59.005Z,-0.20
2019-02-04T01:34:28.880Z,-0.10
2019-02-04T01:36:58.827Z,0.00
2019-02-04T01:39:28.707Z,-0.10
2019-02-04T01:41:58.544Z,0.20
2019-02-04T01:44:28.430Z,0.10
2019-02-04T01:46:58.484Z,0.10
2019-02-04T01:49:28.435Z,-0.20
2019-02-04T01:51:58.391Z,-0.30
2019-02-04T01:54:28.378Z,-0.20
2019-02-04T01:56:58.233Z,0.00
2019-02-04T01:59:28.555Z,0.10
2019-02-04T02:01:58.413Z,0.00
2019-02-04T02:04:28.295Z,-0.30
2019-02-04T02:06:58.344Z,-0.60
2019-02-04T02:09:28.226Z,-0.50
2019-02-04T02:11:58.303Z,-0.30
2019-02-04T02:14:28.219Z,-0.30
2019-02-04T02:16:58.144Z,-0.30
2019-02-04T02:19:28.588Z,-0.50
2019-02-04T02:21:58.467Z,-0.50
2019-02-04T02:24:28.449Z,-0.30
2019-02-04T02:26:58.774Z,-0.20
2019-02-04T02:29:28.640Z,-0.50
2019-02-04T02:31:59.674Z,-0.60
2019-02-04T02:34:29.589Z,-0.60
2019-02-04T02:36:59.465Z,-0.40
2019-02-04T02:39:29.430Z,-0.60
2019-02-04T02:41:59.309Z,-0.30
2019-02-04T02:44:29.195Z,-0.30
2019-02-04T02:46:59.056Z,-0.20
2019-02-04T02:49:28.990Z,-0.40
2019-02-04T02:51:58.841Z,-0.20
2019-02-04T02:54:29.231Z,-0.10
2019-02-04T02:56:59.089Z,-0.30
2019-02-04T02:59:29.095Z,-0.40
2019-02-04T03:01:58.960Z,-0.40
2019-02-04T03:04:28.844Z,-0.30
2019-02-04T03:06:58.730Z,-0.40
2019-02-04T03:09:28.604Z,-0.20
2019-02-04T03:11:58.553Z,-0.20
2019-02-04T03:14:28.470Z,0.20
2019-02-04T03:16:58.311Z,0.20
2019-02-04T03:19:28.179Z,-0.20
2019-02-04T03:21:58.346Z,0.10
2019-02-04T03:24:28.225Z,-0.20
2019-02-04T03:26:58.118Z,-0.30
2019-02-04T03:29:27.991Z,-0.40
2019-02-04T03:31:57.944Z,-0.40
2019-02-04T03:34:27.855Z,-0.60
2019-02-04T03:36:57.733Z,-0.40
2019-02-04T03:39:27.620Z,-0.30
2019-02-04T03:41:57.602Z,-0.30
2019-02-04T03:44:27.557Z,-0.20
2019-02-04T03:46:57.500Z,-0.10
2019-02-04T03:49:27.836Z,0.10
2019-02-04T03:51:57.802Z,0.00
2019-02-04T03:54:27.721Z,0.00
2019-02-04T03:56:57.607Z,0.10
2019-02-04T03:59:27.626Z,0.30
2019-02-04T04:01:57.623Z,0.00
2019-02-04T04:04:28.712Z,0.00
2019-02-04T04:07:01.631Z,-0.40
2019-02-04T04:09:31.617Z,-0.30
2019-02-04T04:12:01.516Z,-0.10
2019-02-04T04:14:31.473Z,-0.10
2019-02-04T04:17:01.450Z,-0.10
2019-02-04T04:19:31.370Z,0.10
2019-02-04T04:22:01.262Z,0.00
2019-02-04T04:24:31.511Z,0.00
2019-02-04T04:27:01.550Z,-0.20
2019-02-04T04:29:31.820Z,-0.10
2019-02-04T04:32:01.701Z,0.00
2019-02-04T04:34:31.638Z,0.20
2019-02-04T04:37:01.529Z,0.30
2019-02-04T04:39:31.375Z,0.50
2019-02-04T04:42:01.278Z,0.20
2019-02-04T04:44:31.135Z,0.20
2019-02-04T04:47:01.005Z,0.30
2019-02-04T04:49:30.987Z,0.20
2019-02-04T04:52:00.853Z,0.20
2019-02-04T04:54:30.909Z,0.50
2019-02-04T04:57:01.284Z,0.70
2019-02-04T04:59:31.128Z,0.50
2019-02-04T05:02:01.060Z,0.30
2019-02-04T05:04:30.930Z,0.10
2019-02-04T05:07:01.527Z,0.10
2019-02-04T05:09:31.455Z,0.20
2019-02-04T05:12:01.535Z,0.30
2019-02-04T05:14:31.546Z,0.60
2019-02-04T05:17:01.440Z,0.60
2019-02-04T05:19:31.402Z,1.00
2019-02-04T05:22:01.705Z,1.10
2019-02-04T05:24:32.036Z,1.30
2019-02-04T05:27:02.018Z,1.30
2019-02-04T05:29:31.996Z,1.20
2019-02-04T05:32:01.905Z,1.30
2019-02-04T05:34:31.753Z,1.60
2019-02-04T05:37:02.199Z,1.70
2019-02-04T05:39:32.200Z,1.80
2019-02-04T05:42:02.311Z,2.00
2019-02-04T05:44:32.176Z,2.00
2019-02-04T05:47:02.068Z,1.80
2019-02-04T05:49:31.965Z,1.80
2019-02-04T05:52:02.239Z,1.70
2019-02-04T05:54:32.171Z,1.70
2019-02-04T05:57:02.055Z,2.00
2019-02-04T05:59:31.912Z,2.10
2019-02-04T06:02:02.105Z,2.20
2019-02-04T06:04:32.428Z,2.00
2019-02-04T06:07:02.865Z,1.90
2019-02-04T06:09:32.726Z,1.80
2019-02-04T06:12:02.709Z,2.10
2019-02-04T06:14:32.649Z,1.90
2019-02-04T06:17:02.588Z,1.70
2019-02-04T06:19:32.486Z,1.50
2019-02-04T06:22:02.342Z,1.20
2019-02-04T06:24:35.060Z,1.50
2019-02-04T06:27:04.932Z,1.70
2019-02-04T06:29:35.640Z,1.50
2019-02-04T06:32:05.835Z,1.70
2019-02-04T06:34:35.804Z,1.90
2019-02-04T06:37:05.676Z,2.20
2019-02-04T06:39:35.669Z,2.30
2019-02-04T06:42:05.527Z,2.10
2019-02-04T06:44:35.551Z,2.10
2019-02-04T06:47:05.379Z,2.10
2019-02-04T06:49:35.291Z,2.00
2019-02-04T06:52:05.144Z,1.80
2019-02-04T06:54:35.027Z,1.90
2019-02-04T06:57:04.948Z,2.00
2019-02-04T06:59:35.248Z,2.10
2019-02-04T07:02:05.401Z,2.50
2019-02-04T07:04:35.301Z,2.50
2019-02-04T07:07:05.169Z,2.50
2019-02-04T07:09:35.048Z,2.50
2019-02-04T07:12:05.014Z,2.50
2019-02-04T07:14:35.215Z,2.20
2019-02-04T07:17:05.060Z,1.70
2019-02-04T07:19:34.920Z,1.40
2019-02-04T07:22:04.862Z,1.60
2019-02-04T07:24:42.362Z,1.70
2019-02-04T07:27:06.370Z,1.80
2019-02-04T07:29:36.230Z,1.70
2019-02-04T07:32:06.144Z,2.00
2019-02-04T07:34:36.068Z,1.90
2019-02-04T07:37:06.953Z,1.80
2019-02-04T07:39:36.907Z,1.80
2019-02-04T07:42:07.503Z,1.70
2019-02-04T07:44:37.311Z,1.90
2019-02-04T07:47:08.488Z,1.90
2019-02-04T07:49:38.431Z,1.80
2019-02-04T07:52:08.337Z,1.90
2019-02-04T07:54:38.305Z,2.10
2019-02-04T07:57:08.155Z,2.50
2019-02-04T07:59:38.019Z,3.00
2019-02-04T08:02:07.859Z,3.80
2019-02-04T08:04:37.740Z,4.70
2019-02-04T08:10:43.211Z,6.40
2019-02-04T08:13:13.088Z,6.20
2019-02-04T08:15:44.595Z,7.10
2019-02-04T08:18:14.586Z,8.10
2019-02-04T08:20:44.633Z,8.20
2019-02-04T08:23:14.489Z,8.50
2019-02-04T08:25:44.418Z,7.40
2019-02-04T08:28:14.346Z,7.70
2019-02-04T08:30:44.229Z,8.00
2019-02-04T08:33:14.088Z,8.20
2019-02-04T08:35:44.008Z,7.60
2019-02-04T08:38:13.944Z,7.70
2019-02-04T08:40:43.864Z,7.60
2019-02-04T08:43:13.880Z,8.20
2019-02-04T08:45:43.841Z,8.10
2019-02-04T08:48:13.761Z,7.00
2019-02-04T08:50:43.640Z,7.20
2019-02-04T08:53:13.611Z,6.80
2019-02-04T08:55:43.579Z,7.00
2019-02-04T08:58:13.535Z,6.20
2019-02-04T09:00:43.600Z,5.90
2019-02-04T09:03:13.537Z,5.40
2019-02-04T09:05:43.447Z,5.40
2019-02-04T09:08:16.282Z,5.40
2019-02-04T09:10:46.255Z,5.30
2019-02-04T09:13:16.131Z,5.50
2019-02-04T09:15:46.013Z,5.30
2019-02-04T09:18:15.875Z,5.60
2019-02-04T09:20:45.738Z,5.90
2019-02-04T09:23:15.905Z,5.90
2019-02-04T09:25:45.868Z,5.70
2019-02-04T09:28:15.724Z,5.60
2019-02-04T09:30:45.612Z,5.60
2019-02-04T09:33:15.542Z,5.70
2019-02-04T09:35:45.487Z,5.60
2019-02-04T09:38:16.340Z,5.00
2019-02-04T09:40:46.362Z,4.90
2019-02-04T09:43:16.215Z,4.70
2019-02-04T09:45:46.179Z,4.70
2019-02-04T09:48:20.291Z,4.50
2019-02-04T09:51:03.934Z,4.60
2019-02-04T09:53:33.826Z,4.40
2019-02-04T09:56:05.014Z,4.20
2019-02-04T09:58:34.877Z,4.30
2019-02-04T10:01:04.904Z,4.10
2019-02-04T10:03:34.819Z,4.10
2019-02-04T10:06:04.821Z,4.30
2019-02-04T10:08:34.667Z,4.50
2019-02-04T10:11:04.676Z,4.40
2019-02-04T10:13:34.622Z,4.30
2019-02-04T10:16:04.883Z,4.30
2019-02-04T10:18:34.821Z,4.30
2019-02-04T10:21:04.635Z,4.20
2019-02-04T10:23:34.527Z,4.50
2019-02-04T10:26:04.548Z,4.30
2019-02-04T10:28:34.435Z,4.20
2019-02-04T10:31:04.304Z,4.10
2019-02-04T10:33:34.232Z,4.30
2019-02-04T10:36:04.289Z,4.30
2019-02-04T10:38:34.179Z,4.20
2019-02-04T10:41:04.000Z,4.30
2019-02-04T10:43:34.164Z,4.30
2019-02-04T10:46:04.813Z,4.10
2019-02-04T10:48:35.209Z,4.00
2019-02-04T10:51:05.177Z,3.90
2019-02-04T10:53:35.078Z,3.90
2019-02-04T10:56:05.103Z,4.00
2019-02-04T10:58:35.022Z,4.10
2019-02-04T11:01:04.894Z,4.10
2019-02-04T11:03:34.789Z,4.20
2019-02-04T11:06:04.715Z,4.10
2019-02-04T11:08:34.769Z,3.90
2019-02-04T11:11:04.666Z,4.20
2019-02-04T11:13:34.526Z,4.10
2019-02-04T11:16:04.559Z,4.30
2019-02-04T11:18:34.434Z,4.30
2019-02-04T11:21:04.371Z,4.40
2019-02-04T11:23:34.219Z,4.00
2019-02-04T11:26:04.285Z,4.30
2019-02-04T11:28:34.204Z,4.40
2019-02-04T11:31:07.398Z,4.50
2019-02-04T11:33:37.277Z,4.50
2019-02-04T11:36:07.150Z,4.60
2019-02-04T11:38:37.602Z,4.60
2019-02-04T11:41:07.860Z,4.70
2019-02-04T11:43:37.745Z,4.60
2019-02-04T11:46:07.653Z,4.60
2019-02-04T11:48:37.593Z,4.40
2019-02-04T11:51:09.855Z,4.50
2019-02-04T11:53:38.934Z,4.60
2019-02-04T11:56:08.996Z,4.70
2019-02-04T11:58:38.945Z,4.70
2019-02-04T12:01:08.885Z,4.80
2019-02-04T12:03:38.755Z,5.00
2019-02-04T12:06:08.982Z,4.90
2019-02-04T12:08:38.853Z,5.00
2019-02-04T12:11:17.713Z,5.10
2019-02-04T12:13:47.600Z,5.00
2019-02-04T12:16:17.536Z,5.10
2019-02-04T12:18:47.709Z,5.00
2019-02-04T12:21:21.432Z,5.20
2019-02-04T12:23:49.072Z,5.30
2019-02-04T12:26:18.982Z,5.50
2019-02-04T12:28:48.853Z,5.40
2019-02-04T12:31:18.713Z,5.40
2019-02-04T12:33:48.584Z,5.40
2019-02-04T12:36:18.425Z,5.50
2019-02-04T12:38:48.306Z,5.50
2019-02-04T12:41:18.220Z,5.20
2019-02-04T12:43:48.127Z,5.50
2019-02-04T12:46:18.172Z,5.70
2019-02-04T12:48:48.486Z,5.70
2019-02-04T12:51:18.431Z,5.70
2019-02-04T12:53:48.318Z,5.80
2019-02-04T12:56:18.289Z,5.50
2019-02-04T12:58:55.231Z,5.60
2019-02-04T13:01:19.732Z,5.60
2019-02-04T13:03:49.591Z,5.30
2019-02-04T13:06:19.550Z,5.50
2019-02-04T13:08:49.382Z,5.50
2019-02-04T13:11:19.260Z,5.60
2019-02-04T13:13:49.639Z,5.60
2019-02-04T13:16:19.612Z,5.70
2019-02-04T13:18:49.484Z,5.70
2019-02-04T13:21:19.636Z,5.60
2019-02-04T13:23:49.588Z,5.70
2019-02-04T13:26:19.720Z,5.90
2019-02-04T13:28:49.654Z,5.80
2019-02-04T13:31:19.607Z,5.70
2019-02-04T13:33:49.557Z,5.60
2019-02-04T13:36:19.435Z,5.50
2019-02-04T13:38:49.297Z,5.50
2019-02-04T13:41:19.375Z,5.60
2019-02-04T13:43:49.316Z,5.60
2019-02-04T13:46:19.187Z,5.60
2019-02-04T13:48:49.044Z,5.50
2019-02-04T13:51:18.991Z,5.50
2019-02-04T13:53:48.845Z,5.40
2019-02-04T13:56:18.806Z,5.60
2019-02-04T13:58:48.697Z,5.70
2019-02-04T14:01:18.608Z,5.70
2019-02-04T14:03:48.611Z,5.80
2019-02-04T14:06:18.583Z,5.90
2019-02-04T14:08:48.754Z,6.00
2019-02-04T14:11:18.608Z,5.90
2019-02-04T14:13:48.490Z,5.20
2019-02-04T14:16:18.347Z,5.40
2019-02-04T14:18:48.227Z,5.50
2019-02-04T14:21:18.113Z,5.40
2019-02-04T14:23:47.972Z,5.30
2019-02-04T14:26:17.841Z,5.40
2019-02-04T14:28:47.703Z,5.50
2019-02-04T14:31:17.672Z,5.50
2019-02-04T14:33:47.596Z,5.20
2019-02-04T14:36:17.681Z,4.80
2019-02-04T14:38:47.520Z,5.00
2019-02-04T14:41:17.395Z,5.30
2019-02-04T14:44:17.638Z,5.30
2019-02-04T14:47:27.776Z,5.30
2019-02-04T14:50:23.648Z,5.30
2019-02-04T14:53:11.814Z,5.20
2019-02-04T14:56:03.643Z,5.40
2019-02-04T14:58:42.505Z,5.50
2019-02-04T15:01:52.571Z,5.40
2019-02-04T15:04:37.970Z,5.40
2019-02-04T15:08:10.843Z,5.10
2019-02-04T15:11:11.691Z,5.30
2019-02-04T15:14:13.048Z,5.30
2019-02-04T15:16:48.846Z,5.20
2019-02-04T15:20:05.266Z,5.10
2019-02-04T15:23:25.560Z,5.10
2019-02-04T15:26:37.416Z,5.20
2019-02-04T15:29:46.206Z,5.00
2019-02-04T15:32:37.985Z,5.10
2019-02-04T15:35:39.715Z,4.90
2019-02-04T15:38:48.143Z,5.20
2019-02-04T15:42:32.293Z,5.10
2019-02-04T15:45:41.348Z,4.90
2019-02-04T15:48:17.228Z,4.10
2019-02-04T15:51:00.788Z,4.60
2019-02-04T15:53:30.661Z,4.60
2019-02-04T15:56:02.566Z,4.40
2019-02-04T15:58:32.624Z,4.50
2019-02-04T16:01:04.679Z,4.40
2019-02-04T16:03:34.685Z,4.30
2019-02-04T16:06:04.523Z,4.20
2019-02-04T16:08:34.472Z,4.50
2019-02-04T16:11:04.823Z,4.20
2019-02-04T16:13:34.729Z,4.40
2019-02-04T16:16:04.570Z,4.00
2019-02-04T16:18:34.453Z,4.30
2019-02-04T16:21:04.398Z,4.20
2019-02-04T16:23:34.294Z,4.30
2019-02-04T16:26:05.892Z,4.10
2019-02-04T16:28:35.751Z,3.60
2019-02-04T16:31:05.689Z,3.50
2019-02-04T16:33:35.653Z,3.90
2019-02-04T16:36:05.589Z,4.00
2019-02-04T16:38:35.537Z,4.10
2019-02-04T16:41:05.392Z,4.00
2019-02-04T16:43:35.326Z,3.90
2019-02-04T16:46:05.333Z,4.00
2019-02-04T16:48:35.240Z,4.20
2019-02-04T16:51:11.633Z,4.20
2019-02-04T16:53:36.623Z,4.20
2019-02-04T16:56:06.723Z,4.10
2019-02-04T16:58:36.658Z,4.10
2019-02-04T17:01:08.499Z,4.10
2019-02-04T17:03:38.669Z,4.00
2019-02-04T17:06:09.090Z,3.80
2019-02-04T17:08:38.969Z,4.00
2019-02-04T17:11:08.823Z,4.00
2019-02-04T17:13:38.717Z,4.00
2019-02-04T17:16:08.621Z,3.90
2019-02-04T17:18:38.492Z,4.00
2019-02-04T17:21:08.425Z,4.00
2019-02-04T17:23:38.375Z,3.90
2019-02-04T17:26:08.420Z,4.00
2019-02-04T17:28:40.921Z,4.00
2019-02-04T17:31:10.786Z,4.10
2019-02-04T17:33:40.825Z,4.10
2019-02-04T17:36:10.763Z,4.10
2019-02-04T17:38:40.732Z,4.10
2019-02-04T17:41:10.713Z,4.00
2019-02-04T17:43:40.850Z,4.00
2019-02-04T17:46:10.792Z,4.00
2019-02-04T17:48:40.948Z,3.80
2019-02-04T17:51:11.662Z,4.00
2019-02-04T17:53:41.641Z,4.00
2019-02-04T17:56:11.690Z,3.90
2019-02-04T17:58:41.584Z,3.90
2019-02-04T18:01:11.563Z,3.90
2019-02-04T18:03:41.820Z,3.90
2019-02-04T18:06:11.792Z,3.70
2019-02-04T18:08:41.701Z,3.70
2019-02-04T18:11:11.584Z,3.90
2019-02-04T18:13:41.491Z,4.10
2019-02-04T18:16:11.587Z,4.10
2019-02-04T18:18:41.444Z,4.00
2019-02-04T18:21:11.342Z,4.10
2019-02-04T18:23:46.052Z,4.10
2019-02-04T18:26:12.761Z,4.20
2019-02-04T18:28:43.027Z,4.10
2019-02-04T18:31:12.971Z,4.20
2019-02-04T18:33:42.753Z,4.20
2019-02-04T18:36:12.607Z,4.20
2019-02-04T18:38:42.456Z,4.20
2019-02-04T18:41:12.493Z,4.20
2019-02-04T18:43:42.415Z,4.20
2019-02-04T18:46:12.280Z,3.90
2019-02-04T18:48:43.821Z,4.00
2019-02-04T18:51:13.837Z,4.20
2019-02-04T18:53:43.803Z,4.30
2019-02-04T18:56:13.797Z,4.00
2019-02-04T18:58:43.662Z,4.10
2019-02-04T19:01:13.530Z,4.10
2019-02-04T19:03:43.392Z,4.10
2019-02-04T19:06:13.333Z,4.00
2019-02-04T19:08:43.190Z,4.00
2019-02-04T19:11:13.367Z,4.10
2019-02-04T19:13:43.572Z,4.10
2019-02-04T19:16:13.494Z,4.00
2019-02-04T19:18:43.337Z,4.00
2019-02-04T19:21:13.284Z,3.90
2019-02-04T19:23:43.642Z,3.90
2019-02-04T19:26:13.611Z,4.00
2019-02-04T19:28:44.385Z,3.90
2019-02-04T19:31:18.147Z,3.90
2019-02-04T19:33:48.366Z,4.10
2019-02-04T19:36:18.632Z,4.10
2019-02-04T19:38:48.461Z,4.10
2019-02-04T19:41:18.366Z,4.00
2019-02-04T19:43:48.224Z,4.10
2019-02-04T19:46:18.262Z,4.10
2019-02-04T19:48:48.191Z,4.10
2019-02-04T19:51:18.554Z,4.10
2019-02-04T19:53:48.410Z,4.20
2019-02-04T19:56:18.272Z,4.20
2019-02-04T19:58:48.160Z,4.30
2019-02-04T20:01:18.444Z,4.20
2019-02-04T20:03:48.281Z,4.30
2019-02-04T20:06:18.547Z,4.10
2019-02-04T20:08:48.384Z,4.10
2019-02-04T20:11:18.275Z,4.20
2019-02-04T20:13:48.145Z,4.40
2019-02-04T20:16:18.228Z,4.40
2019-02-04T20:18:48.210Z,4.30
2019-02-04T20:21:18.198Z,4.20
2019-02-04T20:23:48.037Z,4.10
2019-02-04T20:26:18.030Z,4.10
2019-02-04T20:28:47.851Z,3.90
2019-02-04T20:31:18.171Z,3.80
2019-02-04T20:33:49.881Z,3.90
2019-02-04T20:36:19.780Z,3.80
2019-02-04T20:38:49.651Z,3.70
2019-02-04T20:41:19.502Z,3.70
2019-02-04T20:43:49.457Z,3.70
2019-02-04T20:46:19.398Z,3.60
2019-02-04T20:48:49.691Z,3.60
2019-02-04T20:51:19.559Z,3.60
2019-02-04T20:53:49.420Z,3.60
2019-02-04T20:56:19.315Z,3.60
2019-02-04T20:58:49.275Z,3.60
2019-02-04T21:01:19.112Z,3.60
2019-02-04T21:03:49.142Z,3.50
2019-02-04T21:06:19.020Z,3.60
2019-02-04T21:08:49.853Z,3.60
2019-02-04T21:11:19.994Z,3.70
2019-02-04T21:13:49.888Z,3.80
2019-02-04T21:16:19.756Z,3.80
2019-02-04T21:18:49.689Z,3.90
2019-02-04T21:21:19.559Z,3.90
2019-02-04T21:23:49.427Z,3.90
2019-02-04T21:26:19.340Z,4.00
2019-02-04T21:28:49.200Z,3.90
2019-02-04T21:31:19.454Z,4.00
2019-02-04T21:33:49.334Z,4.10
2019-02-04T21:36:19.370Z,4.10
2019-02-04T21:38:49.319Z,4.20
2019-02-04T21:41:21.161Z,4.30
2019-02-04T21:43:50.857Z,4.30
2019-02-04T21:46:20.723Z,4.40
2019-02-04T21:48:50.601Z,4.50
2019-02-04T21:51:20.441Z,4.50
2019-02-04T21:53:50.345Z,4.50
2019-02-04T21:56:20.197Z,4.20
2019-02-04T21:58:50.212Z,4.50
2019-02-04T22:01:20.123Z,4.50
2019-02-04T22:03:50.012Z,4.40
2019-02-04T22:06:22.379Z,4.20
2019-02-04T22:08:52.885Z,4.40
2019-02-04T22:11:22.729Z,4.30
2019-02-04T22:13:52.636Z,4.30
2019-02-04T22:16:22.491Z,4.20
2019-02-04T22:18:52.624Z,4.20
2019-02-04T22:21:22.626Z,4.20
2019-02-04T22:23:52.606Z,4.20
2019-02-04T22:26:22.436Z,4.00
2019-02-04T22:28:52.314Z,4.10
2019-02-04T22:31:22.251Z,4.20
2019-02-04T22:33:54.612Z,4.30
2019-02-04T22:36:24.810Z,4.20
2019-02-04T22:38:54.738Z,4.10
2019-02-04T22:41:24.650Z,4.20
2019-02-04T22:43:54.428Z,4.20
2019-02-04T22:46:24.382Z,4.20
2019-02-04T22:48:54.233Z,4.30
2019-02-04T22:51:24.124Z,4.30
2019-02-04T22:53:53.979Z,4.30
2019-02-04T22:56:24.227Z,4.30
2019-02-04T22:58:54.102Z,4.20
2019-02-04T23:01:55.727Z,4.20
2019-02-04T23:04:26.041Z,4.20
2019-02-04T23:06:55.934Z,4.10
2019-02-04T23:09:25.788Z,4.20
2019-02-04T23:11:55.667Z,4.20
2019-02-04T23:14:25.545Z,4.10
2019-02-04T23:16:55.483Z,4.20
2019-02-04T23:19:25.348Z,4.10
2019-02-04T23:21:55.242Z,4.20
2019-02-04T23:24:25.098Z,4.10
2019-02-04T23:26:54.969Z,4.00
2019-02-04T23:29:24.843Z,4.20
2019-02-04T23:31:55.105Z,4.20
2019-02-04T23:34:24.975Z,4.20
2019-02-04T23:36:54.836Z,4.20
2019-02-04T23:39:24.763Z,4.20
2019-02-04T23:41:57.762Z,4.30
2019-02-04T23:44:26.099Z,4.30
2019-02-04T23:46:56.123Z,4.30
2019-02-04T23:49:26.049Z,4.20
2019-02-04T23:51:55.997Z,4.10
2019-02-04T23:54:25.828Z,4.20
2019-02-04T23:56:55.698Z,4.40
2019-02-04T23:59:25.535Z,4.40
